createdAt,value
2022-10-26T00:00:12.896Z,16.575
2022-10-26T00:01:12.640Z,16.53
2022-10-26T00:02:11.047Z,16.54
2022-10-26T00:03:12.515Z,16.55
2022-10-26T00:04:12.139Z,16.56
2022-10-26T00:05:12.885Z,16.565
2022-10-26T00:06:12.826Z,16.57
2022-10-26T00:07:12.270Z,16.54
2022-10-26T00:08:13.241Z,16.565
2022-10-26T00:09:13.000Z,16.565
2022-10-26T00:10:11.141Z,16.58
2022-10-26T00:11:13.026Z,16.58
2022-10-26T00:12:12.451Z,16.595
2022-10-26T00:13:12.147Z,16.595
2022-10-26T00:14:12.663Z,16.595
2022-10-26T00:15:12.623Z,16.6208
2022-10-26T00:16:12.196Z,16.61
2022-10-26T00:17:12.509Z,16.605
2022-10-26T00:18:12.339Z,16.6
2022-10-26T00:19:12.314Z,16.595
2022-10-26T00:20:13.017Z,16.6
2022-10-26T00:21:12.423Z,16.585
2022-10-26T00:22:11.807Z,16.58
2022-10-26T00:23:12.735Z,16.565
2022-10-26T00:24:12.010Z,16.56
2022-10-26T00:25:11.912Z,16.58
2022-10-26T00:26:12.895Z,16.575
2022-10-26T00:27:17.178Z,16.57
2022-10-26T00:28:11.001Z,16.55
2022-10-26T00:29:12.630Z,16.555
2022-10-26T00:30:12.327Z,16.51
2022-10-26T00:31:10.507Z,16.505
2022-10-26T00:32:12.685Z,16.51
2022-10-26T00:33:12.116Z,16.53
2022-10-26T00:34:13.010Z,16.51
2022-10-26T00:35:22.874Z,16.55
2022-10-26T00:36:13.062Z,16.57
2022-10-26T00:37:13.034Z,16.58
2022-10-26T00:38:12.219Z,16.595
2022-10-26T00:39:11.517Z,16.585
2022-10-26T00:40:12.695Z,16.585
2022-10-26T00:41:12.786Z,16.595
2022-10-26T00:42:11.444Z,16.616
2022-10-26T00:43:12.711Z,16.6
2022-10-26T00:44:11.888Z,16.615
2022-10-26T00:45:11.064Z,16.61
2022-10-26T00:46:11.136Z,16.655
2022-10-26T00:47:11.680Z,16.649
2022-10-26T00:48:12.157Z,16.6783
2022-10-26T00:49:12.468Z,16.694
2022-10-26T00:50:10.684Z,16.694
2022-10-26T00:51:10.763Z,16.69
2022-10-26T00:52:11.300Z,16.683
2022-10-26T00:53:11.339Z,16.655
2022-10-26T00:54:11.385Z,16.655
2022-10-26T00:55:12.146Z,16.672
2022-10-26T00:56:11.604Z,16.683
2022-10-26T00:57:11.230Z,16.6841
2022-10-26T00:58:12.134Z,16.699
2022-10-26T00:59:11.230Z,16.71
2022-10-26T01:00:10.790Z,16.715
2022-10-26T01:01:11.960Z,16.745
2022-10-26T01:02:11.686Z,16.695
2022-10-26T01:03:12.446Z,16.705
2022-10-26T01:04:13.117Z,16.694
2022-10-26T01:05:10.035Z,16.6841
2022-10-26T01:06:11.218Z,16.699
2022-10-26T01:07:11.290Z,16.7063
2022-10-26T01:08:11.287Z,16.717
2022-10-26T01:09:11.437Z,16.715
2022-10-26T01:10:10.169Z,16.7227
2022-10-26T01:11:11.769Z,16.722
2022-10-26T01:12:11.113Z,16.735
2022-10-26T01:13:13.039Z,16.71
2022-10-26T01:14:11.959Z,16.7
2022-10-26T01:15:11.318Z,16.7172
2022-10-26T01:16:11.996Z,16.7315
2022-10-26T01:17:11.487Z,16.7445
2022-10-26T01:18:12.147Z,16.7407
2022-10-26T01:19:11.500Z,16.75
2022-10-26T01:20:15.632Z,16.773
2022-10-26T01:21:11.949Z,16.7609
2022-10-26T01:22:12.117Z,16.77
2022-10-26T01:23:11.090Z,16.765
2022-10-26T01:24:11.773Z,16.795
2022-10-26T01:25:11.214Z,16.785
2022-10-26T01:26:11.652Z,16.8158
2022-10-26T01:27:11.872Z,16.81
2022-10-26T01:28:11.643Z,16.8216
2022-10-26T01:29:11.501Z,16.8216
2022-10-26T01:30:11.139Z,16.839
2022-10-26T01:31:11.531Z,16.8683
2022-10-26T01:32:10.823Z,16.85
2022-10-26T01:33:11.632Z,16.828
2022-10-26T01:34:10.157Z,16.833
2022-10-26T01:35:11.895Z,16.8158
2022-10-26T01:36:11.326Z,16.827
2022-10-26T01:37:11.030Z,16.867
2022-10-26T01:38:12.188Z,16.89
2022-10-26T01:39:11.735Z,16.9
2022-10-26T01:40:10.692Z,16.915
2022-10-26T01:41:11.615Z,16.925
2022-10-26T01:42:11.502Z,16.95
2022-10-26T01:43:11.258Z,16.955
2022-10-26T01:44:11.055Z,16.995
2022-10-26T01:45:11.376Z,17.025
2022-10-26T01:46:12.104Z,17.03
2022-10-26T01:47:15.125Z,17.075
2022-10-26T01:48:13.090Z,17.105
2022-10-26T01:49:12.179Z,17.1208
2022-10-26T01:50:11.174Z,17.137
2022-10-26T01:51:11.689Z,17.1783
2022-10-26T01:52:12.522Z,17.235
2022-10-26T01:53:12.860Z,17.25
2022-10-26T01:54:11.303Z,17.24
2022-10-26T01:55:12.212Z,17.265
2022-10-26T01:56:11.713Z,17.265
2022-10-26T01:57:11.262Z,17.285
2022-10-26T01:58:11.752Z,17.3108
2022-10-26T01:59:11.408Z,17.3158
2022-10-26T02:00:11.433Z,17.31
2022-10-26T02:01:12.918Z,17.31
2022-10-26T02:02:11.207Z,17.327
2022-10-26T02:03:11.190Z,17.356
2022-10-26T02:04:10.741Z,17.361
2022-10-26T02:05:11.180Z,17.3683
2022-10-26T02:06:11.834Z,17.385
2022-10-26T02:07:12.334Z,17.385
2022-10-26T02:08:11.551Z,17.41
2022-10-26T02:09:11.619Z,17.4
2022-10-26T02:10:12.271Z,17.4
2022-10-26T02:11:11.927Z,17.41
2022-10-26T02:12:11.514Z,17.425
2022-10-26T02:13:12.127Z,17.415
2022-10-26T02:14:11.984Z,17.425
2022-10-26T02:15:12.558Z,17.45
2022-10-26T02:16:12.488Z,17.47
2022-10-26T02:17:11.732Z,17.465
2022-10-26T02:18:11.613Z,17.45
2022-10-26T02:19:12.397Z,17.45
2022-10-26T02:20:11.909Z,17.445
2022-10-26T02:21:12.630Z,17.435
2022-10-26T02:22:16.310Z,17.435
2022-10-26T02:23:11.820Z,17.44
2022-10-26T02:24:12.399Z,17.44
2022-10-26T02:25:12.084Z,17.44
2022-10-26T02:26:12.021Z,17.44
2022-10-26T02:27:11.792Z,17.45
2022-10-26T02:28:11.820Z,17.44
2022-10-26T02:29:12.732Z,17.475
2022-10-26T02:30:12.630Z,17.48
2022-10-26T02:31:11.845Z,17.49
2022-10-26T02:32:12.758Z,17.485
2022-10-26T02:33:12.285Z,17.47
2022-10-26T02:34:12.309Z,17.4945
2022-10-26T02:35:12.621Z,17.5046
2022-10-26T02:36:13.343Z,17.525
2022-10-26T02:37:11.771Z,17.5327
2022-10-26T02:38:13.762Z,17.5
2022-10-26T02:39:13.089Z,17.5163
2022-10-26T02:40:12.493Z,17.5507
2022-10-26T02:41:12.099Z,17.554
2022-10-26T02:42:12.190Z,17.58
2022-10-26T02:43:13.659Z,17.626
2022-10-26T02:44:12.004Z,17.6316
2022-10-26T02:45:12.814Z,17.643
2022-10-26T02:46:12.868Z,17.6316
2022-10-26T02:47:11.966Z,17.6891
2022-10-26T02:48:13.142Z,17.71
2022-10-26T02:49:12.949Z,17.71
2022-10-26T02:50:11.413Z,17.735
2022-10-26T02:51:12.996Z,17.735
2022-10-26T02:52:12.607Z,17.73
2022-10-26T02:53:12.428Z,17.755
2022-10-26T02:54:12.981Z,17.76
2022-10-26T02:55:12.383Z,17.745
2022-10-26T02:56:12.219Z,17.765
2022-10-26T02:57:13.029Z,17.79
2022-10-26T02:58:12.787Z,17.805
2022-10-26T02:59:12.598Z,17.822
2022-10-26T03:00:16.261Z,17.85
2022-10-26T03:01:12.710Z,17.856
2022-10-26T03:02:12.235Z,17.8791
2022-10-26T03:03:13.112Z,17.92
2022-10-26T03:04:13.038Z,17.925
2022-10-26T03:05:11.528Z,17.93
2022-10-26T03:06:13.098Z,17.945
2022-10-26T03:07:12.450Z,17.96
2022-10-26T03:08:12.197Z,17.965
2022-10-26T03:09:12.657Z,18.015
2022-10-26T03:10:12.497Z,18.015
2022-10-26T03:11:13.145Z,18.06
2022-10-26T03:12:12.718Z,18.055
2022-10-26T03:13:12.046Z,18.075
2022-10-26T03:14:12.879Z,18.11
2022-10-26T03:15:13.369Z,18.1258
2022-10-26T03:16:12.773Z,18.1208
2022-10-26T03:17:12.484Z,18.137
2022-10-26T03:18:12.657Z,18.143
2022-10-26T03:19:12.035Z,18.166
2022-10-26T03:20:12.702Z,18.1891
2022-10-26T03:21:12.079Z,18.1841
2022-10-26T03:22:13.218Z,18.219
2022-10-26T03:23:14.582Z,18.215
2022-10-26T03:24:12.043Z,18.23
2022-10-26T03:25:12.575Z,18.245
2022-10-26T03:26:11.832Z,18.235
2022-10-26T03:27:13.083Z,18.26
2022-10-26T03:28:12.793Z,18.25
2022-10-26T03:29:12.080Z,18.25
2022-10-26T03:30:13.208Z,18.25
2022-10-26T03:31:12.010Z,18.24
2022-10-26T03:32:10.530Z,18.255
2022-10-26T03:33:12.566Z,18.27
2022-10-26T03:34:10.733Z,18.28
2022-10-26T03:35:13.248Z,18.285
2022-10-26T03:36:12.347Z,18.29
2022-10-26T03:37:12.498Z,18.28
2022-10-26T03:38:15.938Z,18.295
2022-10-26T03:39:13.040Z,18.295
2022-10-26T03:40:11.981Z,18.3108
2022-10-26T03:41:12.953Z,18.3216
2022-10-26T03:42:11.955Z,18.333
2022-10-26T03:43:11.430Z,18.327
2022-10-26T03:44:12.537Z,18.356
2022-10-26T03:45:12.300Z,18.356
2022-10-26T03:46:10.442Z,18.333
2022-10-26T03:47:13.041Z,18.327
2022-10-26T03:48:12.267Z,18.356
2022-10-26T03:49:11.410Z,18.35
2022-10-26T03:50:11.103Z,18.361
2022-10-26T03:51:12.093Z,18.372
2022-10-26T03:52:11.644Z,18.345
2022-10-26T03:53:12.776Z,18.373
2022-10-26T03:54:10.968Z,18.3683
2022-10-26T03:55:10.861Z,18.3741
2022-10-26T03:56:11.229Z,18.348
2022-10-26T03:57:12.549Z,18.363
2022-10-26T03:58:11.953Z,18.347
2022-10-26T03:59:10.746Z,18.333
2022-10-26T04:00:12.269Z,18.3207
2022-10-26T04:01:11.254Z,18.335
2022-10-26T04:02:11.080Z,18.339
2022-10-26T04:03:12.419Z,18.339
2022-10-26T04:04:17.157Z,18.327
2022-10-26T04:05:12.568Z,18.326
2022-10-26T04:06:12.495Z,18.31
2022-10-26T04:07:11.169Z,18.3108
2022-10-26T04:08:17.292Z,18.326
2022-10-26T04:09:12.379Z,18.3045
2022-10-26T04:10:10.343Z,18.333
2022-10-26T04:11:12.628Z,18.35
2022-10-26T04:12:11.543Z,18.339
2022-10-26T04:13:11.242Z,18.35
2022-10-26T04:14:11.780Z,18.35
2022-10-26T04:15:11.411Z,18.3741
2022-10-26T04:16:15.815Z,18.3746
2022-10-26T04:17:10.399Z,18.378
2022-10-26T04:18:11.718Z,18.3791
2022-10-26T04:19:11.537Z,18.385
2022-10-26T04:20:11.987Z,18.362
2022-10-26T04:21:11.732Z,18.3791
2022-10-26T04:22:13.029Z,18.3683
2022-10-26T04:23:12.470Z,18.373
2022-10-26T04:24:10.944Z,18.385
2022-10-26T04:25:10.748Z,18.362
2022-10-26T04:26:11.129Z,18.35
2022-10-26T04:27:11.359Z,18.3158
2022-10-26T04:28:11.152Z,18.3216
2022-10-26T04:29:11.637Z,18.3
2022-10-26T04:30:11.310Z,18.275
2022-10-26T04:31:11.148Z,18.28
2022-10-26T04:32:10.816Z,18.28
2022-10-26T04:33:10.797Z,18.29
2022-10-26T04:34:13.056Z,18.27
2022-10-26T04:35:14.585Z,18.265
2022-10-26T04:36:11.112Z,18.24
2022-10-26T04:37:11.965Z,18.25
2022-10-26T04:38:10.828Z,18.255
2022-10-26T04:39:11.305Z,18.275
2022-10-26T04:40:12.254Z,18.245
2022-10-26T04:41:12.230Z,18.235
2022-10-26T04:42:11.619Z,18.225
2022-10-26T04:43:11.997Z,18.225
2022-10-26T04:44:10.978Z,18.195
2022-10-26T04:45:10.516Z,18.225
2022-10-26T04:46:15.793Z,18.225
2022-10-26T04:47:13.845Z,18.225
2022-10-26T04:48:11.017Z,18.24
2022-10-26T04:49:11.759Z,18.2
2022-10-26T04:50:11.365Z,18.225
2022-10-26T04:51:11.178Z,18.22
2022-10-26T04:52:12.088Z,18.235
2022-10-26T04:53:11.396Z,18.215
2022-10-26T04:54:11.284Z,18.205
2022-10-26T04:55:11.786Z,18.205
2022-10-26T04:56:11.726Z,18.215
2022-10-26T04:57:11.307Z,18.22
2022-10-26T04:58:11.353Z,18.215
2022-10-26T04:59:11.273Z,18.195
2022-10-26T05:00:10.667Z,18.215
2022-10-26T05:01:12.077Z,18.245
2022-10-26T05:02:15.550Z,18.2361
2022-10-26T05:03:11.993Z,18.239
2022-10-26T05:04:11.569Z,18.235
2022-10-26T05:05:14.185Z,18.21
2022-10-26T05:06:12.161Z,18.22
2022-10-26T05:07:11.400Z,18.205
2022-10-26T05:08:11.343Z,18.2
2022-10-26T05:09:13.981Z,18.19
2022-10-26T05:10:11.792Z,18.195
2022-10-26T05:11:12.145Z,18.2
2022-10-26T05:12:11.838Z,18.1841
2022-10-26T05:13:11.581Z,18.183
2022-10-26T05:14:10.928Z,18.17
2022-10-26T05:15:11.930Z,18.163
2022-10-26T05:16:11.428Z,18.155
2022-10-26T05:17:12.222Z,18.149
2022-10-26T05:18:11.410Z,18.1316
2022-10-26T05:19:11.365Z,18.0981
2022-10-26T05:20:11.864Z,18.083
2022-10-26T05:21:11.634Z,18.0763
2022-10-26T05:22:12.142Z,18.069
2022-10-26T05:23:12.016Z,18.075
2022-10-26T05:24:12.566Z,18.0981
2022-10-26T05:25:11.717Z,18.05
2022-10-26T05:26:12.538Z,18.025
2022-10-26T05:27:11.965Z,18.0109
2022-10-26T05:28:11.817Z,18.005
2022-10-26T05:29:10.827Z,17.98
2022-10-26T05:30:11.772Z,17.98
2022-10-26T05:31:11.845Z,17.955
2022-10-26T05:32:11.227Z,17.97
2022-10-26T05:33:12.328Z,17.985
2022-10-26T05:34:11.440Z,17.975
2022-10-26T05:35:11.716Z,17.93
2022-10-26T05:36:11.606Z,17.945
2022-10-26T05:37:11.646Z,17.93
2022-10-26T05:38:12.103Z,17.91
2022-10-26T05:39:12.295Z,17.91
2022-10-26T05:40:13.400Z,17.915
2022-10-26T05:41:12.126Z,17.867
2022-10-26T05:42:11.283Z,17.9
2022-10-26T05:43:12.417Z,17.884
2022-10-26T05:44:11.213Z,17.878
2022-10-26T05:45:11.316Z,17.8683
2022-10-26T05:46:12.216Z,17.8791
2022-10-26T05:47:12.024Z,17.855
2022-10-26T05:48:10.807Z,17.8791
2022-10-26T05:49:12.001Z,17.89
2022-10-26T05:50:10.949Z,17.9
2022-10-26T05:51:12.217Z,17.89
2022-10-26T05:52:12.121Z,17.94
2022-10-26T05:53:10.883Z,17.945
2022-10-26T05:54:15.663Z,17.95
2022-10-26T05:55:11.877Z,17.96
2022-10-26T05:56:11.585Z,17.955
2022-10-26T05:57:12.581Z,17.97
2022-10-26T05:58:12.494Z,17.995
2022-10-26T05:59:11.856Z,18
2022-10-26T06:00:12.152Z,18.005
2022-10-26T06:01:12.816Z,18.02
2022-10-26T06:02:12.057Z,18.015
2022-10-26T06:03:11.624Z,18.02
2022-10-26T06:04:12.493Z,18.045
2022-10-26T06:05:12.326Z,18.05
2022-10-26T06:06:12.698Z,18.06
2022-10-26T06:07:12.336Z,18.05
2022-10-26T06:08:11.676Z,18.075
2022-10-26T06:09:12.707Z,18.07
2022-10-26T06:10:11.874Z,18.1
2022-10-26T06:11:12.005Z,18.08
2022-10-26T06:12:14.497Z,18.085
2022-10-26T06:13:12.173Z,18.1
2022-10-26T06:14:11.906Z,18.105
2022-10-26T06:15:12.388Z,18.1208
2022-10-26T06:16:12.414Z,18.1316
2022-10-26T06:17:11.863Z,18.1258
2022-10-26T06:18:12.797Z,18.1316
2022-10-26T06:19:12.314Z,18.137
2022-10-26T06:21:12.558Z,18.16
2022-10-26T06:22:13.168Z,18.137
2022-10-26T06:23:12.709Z,18.155
2022-10-26T06:24:11.674Z,18.155
2022-10-26T06:25:12.838Z,18.155
2022-10-26T06:26:12.326Z,18.183
2022-10-26T06:27:15.765Z,18.19
2022-10-26T06:28:12.046Z,18.1783
2022-10-26T06:29:12.781Z,18.219
2022-10-26T06:30:11.220Z,18.21
2022-10-26T06:31:13.145Z,18.22
2022-10-26T06:32:12.232Z,18.225
2022-10-26T06:33:24.701Z,18.235
2022-10-26T06:34:12.716Z,18.255
2022-10-26T06:35:12.802Z,18.235
2022-10-26T06:36:12.101Z,18.26
2022-10-26T06:37:12.994Z,18.26
2022-10-26T06:38:12.394Z,18.265
2022-10-26T06:39:12.295Z,18.2827
2022-10-26T06:40:12.653Z,18.296
2022-10-26T06:41:11.807Z,18.3109
2022-10-26T06:42:11.708Z,18.3108
2022-10-26T06:43:12.486Z,18.3207
2022-10-26T06:44:12.369Z,18.329
2022-10-26T06:46:12.532Z,18.3741
2022-10-26T06:47:12.643Z,18.38
2022-10-26T06:48:13.279Z,18.383
2022-10-26T06:49:12.509Z,18.36
2022-10-26T06:50:12.792Z,18.384
2022-10-26T06:51:13.195Z,18.403
2022-10-26T06:52:12.486Z,18.4018
2022-10-26T06:53:11.982Z,18.395
2022-10-26T06:54:12.616Z,18.395
2022-10-26T06:55:13.130Z,18.41
2022-10-26T06:56:12.220Z,18.39
2022-10-26T06:57:16.802Z,18.383
2022-10-26T06:58:11.636Z,18.4127
2022-10-26T06:59:11.790Z,18.42
2022-10-26T07:00:12.949Z,18.415
2022-10-26T07:01:12.645Z,18.435
2022-10-26T07:02:12.058Z,18.45
2022-10-26T07:03:13.075Z,18.455
2022-10-26T07:04:11.943Z,18.455
2022-10-26T07:05:11.410Z,18.465
2022-10-26T07:07:11.900Z,18.4945
2022-10-26T07:08:11.600Z,18.51
2022-10-26T07:09:12.982Z,18.52
2022-10-26T07:10:17.315Z,18.56
2022-10-26T07:11:11.278Z,18.575
2022-10-26T07:12:12.105Z,18.59
2022-10-26T07:13:11.893Z,18.6208
2022-10-26T07:14:12.753Z,18.66
2022-10-26T07:15:12.683Z,18.7
2022-10-26T07:16:11.804Z,18.735
2022-10-26T07:17:13.482Z,18.76
2022-10-26T07:18:12.124Z,18.765
2022-10-26T07:19:11.619Z,18.78
2022-10-26T07:20:12.329Z,18.77
2022-10-26T07:21:12.370Z,18.785
2022-10-26T07:22:11.693Z,18.795
2022-10-26T07:23:12.524Z,18.785
2022-10-26T07:24:11.715Z,18.8108
2022-10-26T07:25:10.265Z,18.8216
2022-10-26T07:26:12.452Z,18.8216
2022-10-26T07:27:11.783Z,18.839
2022-10-26T07:28:11.382Z,18.8741
2022-10-26T07:29:13.002Z,18.895
2022-10-26T07:30:11.889Z,18.93
2022-10-26T07:31:16.262Z,18.9584
2022-10-26T07:32:12.640Z,18.9781
2022-10-26T07:33:11.428Z,19.02
2022-10-26T07:34:11.071Z,19.035
2022-10-26T07:35:11.762Z,19.05
2022-10-26T07:36:11.695Z,19.07
2022-10-26T07:37:11.116Z,19.035
2022-10-26T07:38:10.229Z,19.08
2022-10-26T07:39:11.431Z,19.1
2022-10-26T07:40:11.150Z,19.132
2022-10-26T07:41:14.237Z,19.155
2022-10-26T07:42:11.745Z,19.172
2022-10-26T07:43:11.182Z,19.1841
2022-10-26T07:44:11.975Z,19.205
2022-10-26T07:45:11.631Z,19.225
2022-10-26T07:46:11.053Z,19.24
2022-10-26T07:47:12.017Z,19.26
2022-10-26T07:48:10.927Z,19.25
2022-10-26T07:49:10.911Z,19.265
2022-10-26T07:50:11.849Z,19.285
2022-10-26T07:51:12.524Z,19.26
2022-10-26T07:52:11.615Z,19.275
2022-10-26T07:53:12.191Z,19.28
2022-10-26T07:54:11.564Z,19.28
2022-10-26T07:55:10.820Z,19.295
2022-10-26T07:56:11.771Z,19.295
2022-10-26T07:57:11.086Z,19.305
2022-10-26T07:58:10.856Z,19.333
2022-10-26T07:59:11.840Z,19.355
2022-10-26T08:00:11.521Z,19.373
2022-10-26T08:01:11.373Z,19.4236
2022-10-26T08:02:11.844Z,19.4446
2022-10-26T08:03:11.352Z,19.445
2022-10-26T08:04:10.985Z,19.4563
2022-10-26T08:05:12.390Z,19.5046
2022-10-26T08:06:11.200Z,19.5327
2022-10-26T08:07:10.811Z,19.545
2022-10-26T08:08:11.534Z,19.61
2022-10-26T08:09:11.269Z,19.6208
2022-10-26T08:10:12.131Z,19.678
2022-10-26T08:11:11.623Z,19.7336
2022-10-26T08:12:10.743Z,19.775
2022-10-26T08:13:12.212Z,19.857
2022-10-26T08:14:11.647Z,19.9018
2022-10-26T08:15:10.972Z,19.965
2022-10-26T08:16:11.777Z,20.04
2022-10-26T08:17:11.522Z,20.126
2022-10-26T08:18:11.064Z,20.2
2022-10-26T08:19:12.044Z,20.3
2022-10-26T08:20:11.421Z,20.385
2022-10-26T08:21:13.346Z,20.455
2022-10-26T08:22:15.557Z,20.53
2022-10-26T08:23:11.177Z,20.61
2022-10-26T08:24:11.227Z,20.666
2022-10-26T08:25:11.114Z,20.7
2022-10-26T08:26:12.230Z,20.745
2022-10-26T08:27:11.118Z,20.817
2022-10-26T08:28:11.759Z,20.8791
2022-10-26T08:29:12.000Z,20.925
2022-10-26T08:30:15.740Z,20.95
2022-10-26T08:31:11.916Z,20.995
2022-10-26T08:32:11.603Z,21.01
2022-10-26T08:33:11.483Z,21.025
2022-10-26T08:34:11.631Z,21.05
2022-10-26T08:35:11.756Z,21.08
2022-10-26T08:36:11.516Z,21.12
2022-10-26T08:37:11.707Z,21.16
2022-10-26T08:38:11.501Z,21.205
2022-10-26T08:39:11.622Z,21.25
2022-10-26T08:40:11.987Z,21.26
2022-10-26T08:41:11.669Z,21.28
2022-10-26T08:42:12.390Z,21.3
2022-10-26T08:43:12.081Z,21.327
2022-10-26T08:44:11.537Z,21.35
2022-10-26T08:45:12.189Z,21.361
2022-10-26T08:46:11.975Z,21.4
2022-10-26T08:47:11.888Z,21.405
2022-10-26T08:48:16.413Z,21.3984
2022-10-26T08:49:12.070Z,21.412
2022-10-26T08:50:11.643Z,21.44
2022-10-26T08:51:12.320Z,21.44
2022-10-26T08:52:12.133Z,21.46
2022-10-26T08:53:11.741Z,21.455
2022-10-26T08:54:16.878Z,21.467
2022-10-26T08:55:14.126Z,21.4945
2022-10-26T08:56:12.970Z,21.525
2022-10-26T08:57:12.911Z,21.555
2022-10-26T08:58:13.775Z,21.555
2022-10-26T08:59:12.436Z,21.57
2022-10-26T09:00:21.546Z,21.615
2022-10-26T09:01:12.424Z,21.605
2022-10-26T09:02:16.787Z,21.6253
2022-10-26T09:03:13.019Z,21.67
2022-10-26T09:04:11.865Z,21.682
2022-10-26T09:05:12.438Z,21.6891
2022-10-26T09:06:12.194Z,21.694
2022-10-26T09:07:12.712Z,21.72
2022-10-26T09:08:12.572Z,21.755
2022-10-26T09:09:12.325Z,21.755
2022-10-26T09:10:12.739Z,21.76
2022-10-26T09:11:12.656Z,21.77
2022-10-26T09:12:12.038Z,21.785
2022-10-26T09:13:12.752Z,21.805
2022-10-26T09:14:11.182Z,21.833
2022-10-26T09:15:12.504Z,21.873
2022-10-26T09:16:12.355Z,21.895
2022-10-26T09:17:12.540Z,21.92
2022-10-26T09:18:11.927Z,21.925
2022-10-26T09:19:13.079Z,21.94
2022-10-26T09:20:12.455Z,21.96
2022-10-26T09:21:15.122Z,21.97
2022-10-26T09:22:12.364Z,21.9945
2022-10-26T09:23:12.731Z,21.995
2022-10-26T09:24:12.432Z,22.045
2022-10-26T09:25:13.470Z,22.055
2022-10-26T09:26:12.960Z,22.08
2022-10-26T09:27:13.615Z,22.1208
2022-10-26T09:28:14.162Z,22.1841
2022-10-26T09:29:12.920Z,22.21
2022-10-26T09:30:13.198Z,22.235
2022-10-26T09:31:16.116Z,22.285
2022-10-26T09:32:12.581Z,22.2827
2022-10-26T09:33:12.594Z,22.3216
2022-10-26T09:34:12.081Z,22.339
2022-10-26T09:35:12.250Z,22.394
2022-10-26T09:36:13.331Z,22.415
2022-10-26T09:37:13.658Z,22.435
2022-10-26T09:38:12.207Z,22.48
2022-10-26T09:39:13.428Z,22.51
2022-10-26T09:40:12.694Z,22.535
2022-10-26T09:41:13.322Z,22.575
2022-10-26T09:42:12.929Z,22.632
2022-10-26T09:43:13.526Z,22.672
2022-10-26T09:44:13.262Z,22.6783
2022-10-26T09:45:13.162Z,22.74
2022-10-26T09:46:12.466Z,22.78
2022-10-26T09:47:13.931Z,22.827
2022-10-26T09:48:12.768Z,22.8683
2022-10-26T09:49:12.357Z,22.878
2022-10-26T09:50:13.044Z,22.915
2022-10-26T09:51:12.914Z,22.94
2022-10-26T09:52:12.324Z,23.005
2022-10-26T09:53:13.301Z,23.035
2022-10-26T09:54:12.613Z,23.07
2022-10-26T09:55:11.971Z,23.144
2022-10-26T09:56:12.966Z,23.177
2022-10-26T09:57:12.274Z,23.23
2022-10-26T09:58:12.277Z,23.26
2022-10-26T09:59:12.675Z,23.3
2022-10-26T10:00:12.396Z,23.333
2022-10-26T10:01:11.550Z,23.3683
2022-10-26T10:02:12.839Z,23.415
2022-10-26T10:03:12.160Z,23.445
2022-10-26T10:04:11.937Z,23.475
2022-10-26T10:05:19.445Z,23.465
2022-10-26T10:06:12.453Z,23.495
2022-10-26T10:07:11.766Z,23.485
2022-10-26T10:08:13.020Z,23.525
2022-10-26T10:09:11.992Z,23.535
2022-10-26T10:10:11.464Z,23.565
2022-10-26T10:11:14.098Z,23.59
2022-10-26T10:12:11.827Z,23.595
2022-10-26T10:13:16.723Z,23.6153
2022-10-26T10:14:12.469Z,23.609
2022-10-26T10:15:11.783Z,23.6258
2022-10-26T10:16:11.932Z,23.6258
2022-10-26T10:17:11.665Z,23.6316
2022-10-26T10:18:12.769Z,23.643
2022-10-26T10:19:12.907Z,23.649
2022-10-26T10:20:11.993Z,23.6258
2022-10-26T10:21:12.874Z,23.56
2022-10-26T10:22:11.494Z,23.535
2022-10-26T10:23:11.661Z,23.54
2022-10-26T10:24:12.544Z,23.56
2022-10-26T10:25:12.206Z,23.555
2022-10-26T10:26:11.743Z,23.59
2022-10-26T10:27:12.764Z,23.615
2022-10-26T10:28:12.472Z,23.66
2022-10-26T10:29:11.447Z,23.683
2022-10-26T10:30:12.718Z,23.72
2022-10-26T10:31:12.988Z,23.725
2022-10-26T10:32:11.472Z,23.715
2022-10-26T10:33:16.981Z,23.6841
2022-10-26T10:34:11.585Z,23.688
2022-10-26T10:35:13.354Z,23.6783
2022-10-26T10:36:12.785Z,23.655
2022-10-26T10:37:12.176Z,23.655
2022-10-26T10:38:10.793Z,23.6783
2022-10-26T10:39:11.978Z,23.705
2022-10-26T10:40:12.488Z,23.73
2022-10-26T10:41:11.611Z,23.755
2022-10-26T10:42:13.168Z,23.785
2022-10-26T10:43:11.609Z,23.833
2022-10-26T10:44:11.407Z,23.885
2022-10-26T10:45:12.088Z,23.925
2022-10-26T10:46:11.249Z,23.945
2022-10-26T10:47:12.602Z,23.975
2022-10-26T10:48:11.867Z,23.995
2022-10-26T10:49:11.290Z,24.0327
2022-10-26T10:50:11.869Z,24.0646
2022-10-26T10:51:11.946Z,24.0709
2022-10-26T10:52:11.306Z,24.105
2022-10-26T10:53:11.158Z,24.126
2022-10-26T10:54:12.016Z,24.1792
2022-10-26T10:55:11.002Z,24.2172
2022-10-26T10:56:11.643Z,24.245
2022-10-26T10:57:12.056Z,24.277
2022-10-26T10:58:11.163Z,24.3109
2022-10-26T10:59:11.148Z,24.35
2022-10-26T11:00:11.569Z,24.395
2022-10-26T11:01:12.921Z,24.45
2022-10-26T11:02:11.314Z,24.5
2022-10-26T11:03:16.942Z,24.569
2022-10-26T11:04:11.047Z,24.615
2022-10-26T11:05:10.675Z,24.649
2022-10-26T11:06:12.021Z,24.699
2022-10-26T11:07:11.327Z,24.74
2022-10-26T11:08:12.110Z,24.765
2022-10-26T11:09:11.196Z,24.8108
2022-10-26T11:10:11.343Z,24.85
2022-10-26T11:11:11.087Z,24.894
2022-10-26T11:12:11.727Z,24.945
2022-10-26T11:13:11.221Z,24.935
2022-10-26T11:14:16.925Z,24.955
2022-10-26T11:15:11.548Z,24.975
2022-10-26T11:16:11.170Z,24.995
2022-10-26T11:17:11.837Z,25.02
2022-10-26T11:18:11.321Z,25.055
2022-10-26T11:19:11.291Z,25.075
2022-10-26T11:20:14.862Z,25.085
2022-10-26T11:21:11.265Z,25.121
2022-10-26T11:22:11.426Z,25.137
2022-10-26T11:23:11.941Z,25.188
2022-10-26T11:24:16.231Z,25.209
2022-10-26T11:25:11.126Z,25.205
2022-10-26T11:26:11.694Z,25.23
2022-10-26T11:27:11.479Z,25.24
2022-10-26T11:28:11.129Z,25.27
2022-10-26T11:29:12.049Z,25.28
2022-10-26T11:30:12.136Z,25.317
2022-10-26T11:31:11.044Z,25.356
2022-10-26T11:32:11.848Z,25.39
2022-10-26T11:33:11.445Z,25.395
2022-10-26T11:34:10.816Z,25.43
2022-10-26T11:35:11.770Z,25.445
2022-10-26T11:36:11.222Z,25.455
2022-10-26T11:37:11.613Z,25.46
2022-10-26T11:38:20.865Z,25.4907
2022-10-26T11:39:11.035Z,25.5
2022-10-26T11:40:11.073Z,25.535
2022-10-26T11:41:11.518Z,25.55
2022-10-26T11:42:11.291Z,25.55
2022-10-26T11:43:12.057Z,25.56
2022-10-26T11:44:11.921Z,25.555
2022-10-26T11:45:11.122Z,25.6
2022-10-26T11:46:16.562Z,25.6
2022-10-26T11:47:11.875Z,25.632
2022-10-26T11:48:11.196Z,25.66
2022-10-26T11:49:12.347Z,25.6841
2022-10-26T11:50:16.238Z,25.709
2022-10-26T11:51:11.745Z,25.725
2022-10-26T11:52:11.117Z,25.8108
2022-10-26T11:53:11.764Z,25.85
2022-10-26T11:54:11.790Z,25.895
2022-10-26T11:55:11.968Z,25.89
2022-10-26T11:56:11.624Z,25.93
2022-10-26T11:57:12.371Z,25.915
2022-10-26T11:58:12.280Z,25.945
2022-10-26T11:59:11.808Z,25.96
2022-10-26T12:00:12.287Z,26.005
2022-10-26T12:01:11.957Z,26.025
2022-10-26T12:02:11.739Z,26.065
2022-10-26T12:03:12.547Z,26.11
2022-10-26T12:04:15.870Z,26.141
2022-10-26T12:05:11.560Z,26.164
2022-10-26T12:06:12.242Z,26.199
2022-10-26T12:07:11.959Z,26.22
2022-10-26T12:08:11.828Z,26.2172
2022-10-26T12:09:12.347Z,26.2546
2022-10-26T12:10:11.845Z,26.3045
2022-10-26T12:11:12.669Z,26.326
2022-10-26T12:12:12.097Z,26.367
2022-10-26T12:13:11.602Z,26.418
2022-10-26T12:14:11.994Z,26.463
2022-10-26T12:15:10.835Z,26.521
2022-10-26T12:16:11.408Z,26.54
2022-10-26T12:17:12.302Z,26.569
2022-10-26T12:18:12.245Z,26.609
2022-10-26T12:19:11.558Z,26.59
2022-10-26T12:20:12.736Z,26.6
2022-10-26T12:21:12.346Z,26.605
2022-10-26T12:22:11.866Z,26.615
2022-10-26T12:23:19.051Z,26.61
2022-10-26T12:24:12.142Z,26.621
2022-10-26T12:25:15.212Z,26.605
2022-10-26T12:26:12.495Z,26.59
2022-10-26T12:27:12.359Z,26.595
2022-10-26T12:28:16.940Z,26.57
2022-10-26T12:29:12.690Z,26.57
2022-10-26T12:30:12.025Z,26.55
2022-10-26T12:31:12.859Z,26.54
2022-10-26T12:32:12.688Z,26.545
2022-10-26T12:33:12.491Z,26.53
2022-10-26T12:34:12.852Z,26.565
2022-10-26T12:35:12.724Z,26.575
2022-10-26T12:36:12.248Z,26.632